Time;durP1;ratioP1;P1;durP2;ratioP2;P2;SDS_P1;SDS_P2;PMS_P1;PMS_P2;Temp;Humidity;BMP_temperature;BMP_pressure;BME280_temperature;BME280_humidity;BME280_pressure;Samples;Min_cycle;Max_cycle;Signal;HPM_P1;HPM_P2
2023/10/17 00:01:35;;;;;;;26.83;11.25;;;7.70;99.90;;;;;;4936200;28;87446;-75
2023/10/17 00:04:35;;;;;;;19.97;11.13;;;7.70;99.90;;;;;;4933433;28;85815;-75
2023/10/17 00:07:02;;;;;;;19.83;11.40;;;7.70;99.90;;;;;;4931252;28;86308;-75
2023/10/17 00:09:29;;;;;;;19.33;11.48;;;7.70;99.90;;;;;;4934006;28;86471;-75
2023/10/17 00:14:32;;;;;;;21.00;11.55;;;7.70;99.90;;;;;;4936421;28;85979;-75
2023/10/17 00:16:57;;;;;;;23.98;11.25;;;7.70;99.90;;;;;;4932521;28;86816;-75
2023/10/17 00:19:28;;;;;;;18.80;11.40;;;7.70;99.90;;;;;;4934961;28;89452;-75
2023/10/17 00:21:54;;;;;;;20.65;10.80;;;7.70;99.90;;;;;;4919536;28;86977;-75
2023/10/17 00:24:20;;;;;;;19.35;10.60;;;7.70;99.90;;;;;;4921467;28;85969;-75
2023/10/17 00:26:49;;;;;;;19.95;9.82;;;7.70;99.90;;;;;;4920946;28;86258;-75
2023/10/17 00:29:15;;;;;;;15.40;9.85;;;7.70;99.90;;;;;;4921100;28;88025;-75
2023/10/17 00:31:43;;;;;;;20.05;10.07;;;7.60;99.90;;;;;;4919791;28;90144;-75
2023/10/17 00:34:21;;;;;;;18.23;9.55;;;7.70;99.90;;;;;;4919419;28;86750;-75
2023/10/17 00:39:32;;;;;;;19.48;9.90;;;7.70;99.90;;;;;;4922440;28;86507;-75
2023/10/17 00:42:09;;;;;;;15.85;10.13;;;7.60;99.90;;;;;;4941060;28;87379;-75
2023/10/17 00:44:41;;;;;;;18.67;9.13;;;7.60;99.90;;;;;;4939310;28;86814;-75
2023/10/17 00:47:08;;;;;;;26.15;10.15;;;7.60;99.90;;;;;;4939004;28;86834;-75
2023/10/17 00:49:42;;;;;;;21.17;11.15;;;7.60;99.90;;;;;;4937343;28;90349;-74
2023/10/17 00:52:22;;;;;;;20.80;11.35;;;7.50;99.90;;;;;;4937928;28;90388;-75
2023/10/17 00:54:51;;;;;;;19.50;11.15;;;7.50;99.90;;;;;;4936939;28;88008;-76
2023/10/17 00:57:17;;;;;;;23.35;12.60;;;7.50;99.90;;;;;;4938786;28;86334;-75
2023/10/17 00:59:50;;;;;;;20.63;11.75;;;7.50;99.90;;;;;;4938509;28;87199;-75
2023/10/17 01:02:22;;;;;;;24.73;13.25;;;7.50;99.90;;;;;;4939694;28;87113;-75
2023/10/17 01:04:50;;;;;;;23.30;12.90;;;7.50;99.90;;;;;;4937951;28;87849;-75
2023/10/17 01:07:31;;;;;;;25.60;12.98;;;7.50;99.90;;;;;;4939282;28;88729;-75
2023/10/17 01:10:10;;;;;;;25.10;14.07;;;7.50;99.90;;;;;;4939148;28;87596;-75
2023/10/17 01:12:41;;;;;;;29.88;14.18;;;7.50;99.90;;;;;;4939340;28;86810;-75
2023/10/17 01:15:07;;;;;;;27.58;14.50;;;7.40;99.90;;;;;;4939118;28;86740;-75
2023/10/17 01:17:35;;;;;;;26.95;14.07;;;7.50;99.90;;;;;;4929855;28;87283;-75
2023/10/17 01:20:08;;;;;;;32.05;14.55;;;7.50;99.90;;;;;;4937800;28;90741;-75
2023/10/17 01:22:36;;;;;;;;;;;7.50;99.90;;;;;;4939750;28;86358;-76
2023/10/17 01:25:17;;;;;;;23.42;12.60;;;7.50;99.90;;;;;;4941757;28;87522;-76
2023/10/17 01:27:44;;;;;;;25.02;13.20;;;7.50;99.90;;;;;;4939238;28;85811;-75
2023/10/17 01:30:11;;;;;;;25.83;14.30;;;7.50;99.90;;;;;;4939526;28;87112;-75
2023/10/17 01:32:36;;;;;;;25.02;13.82;;;7.50;99.90;;;;;;4939210;28;86590;-75
2023/10/17 01:35:02;;;;;;;25.75;13.73;;;7.50;99.90;;;;;;4938456;28;86629;-75
2023/10/17 01:37:28;;;;;;;23.40;13.55;;;7.50;99.90;;;;;;4939400;28;86772;-75
2023/10/17 01:39:53;;;;;;;26.48;12.65;;;7.50;99.90;;;;;;4936688;28;90319;-76
2023/10/17 01:42:20;;;;;;;21.50;13.43;;;7.50;99.90;;;;;;4938473;28;89659;-76
2023/10/17 01:44:45;;;;;;;28.13;13.57;;;7.50;99.90;;;;;;4938164;28;87802;-75
2023/10/17 01:47:11;;;;;;;24.95;13.05;;;7.50;99.90;;;;;;4938471;28;86386;-75
2023/10/17 01:49:37;;;;;;;21.58;12.25;;;7.50;99.90;;;;;;4938677;28;87347;-75
2023/10/17 01:52:03;;;;;;;23.80;12.95;;;7.50;99.90;;;;;;4937348;28;89903;-75
2023/10/17 01:54:29;;;;;;;25.27;11.68;;;7.50;99.90;;;;;;4938427;28;86048;-75
2023/10/17 01:57:05;;;;;;;25.13;11.75;;;7.50;99.90;;;;;;4939073;28;85996;-75
2023/10/17 01:59:34;;;;;;;16.70;10.45;;;7.50;99.90;;;;;;4936592;28;89335;-75
2023/10/17 02:02:03;;;;;;;21.13;11.23;;;7.50;99.90;;;;;;4937700;28;86896;-75
2023/10/17 02:04:30;;;;;;;21.92;11.00;;;7.50;99.90;;;;;;4937494;28;86901;-75
2023/10/17 02:06:56;;;;;;;21.85;11.02;;;7.50;99.90;;;;;;4938343;28;86384;-75
2023/10/17 02:09:44;;;;;;;22.10;11.63;;;7.50;99.90;;;;;;4938640;28;87494;-75
2023/10/17 02:12:11;;;;;;;20.73;9.65;;;7.50;99.90;;;;;;4936600;28;94652;-76
2023/10/17 02:14:39;;;;;;;20.63;9.85;;;7.50;99.90;;;;;;4937103;28;86293;-75
2023/10/17 02:17:06;;;;;;;18.00;9.98;;;7.50;99.90;;;;;;4938273;28;86885;-75
2023/10/17 02:19:38;;;;;;;23.42;10.15;;;7.50;99.90;;;;;;4936832;28;90827;-76
2023/10/17 02:22:09;;;;;;;19.52;9.73;;;7.50;99.90;;;;;;4936172;28;90345;-76
2023/10/17 02:24:36;;;;;;;18.02;9.70;;;7.50;99.90;;;;;;4939200;28;86032;-76
2023/10/17 02:27:08;;;;;;;19.38;9.98;;;7.50;99.90;;;;;;4939715;28;86153;-75
2023/10/17 02:29:39;;;;;;;21.33;9.47;;;7.50;99.90;;;;;;4937671;28;87742;-75
2023/10/17 02:32:15;;;;;;;17.30;9.68;;;7.50;99.90;;;;;;4938523;28;86830;-75
2023/10/17 02:34:46;;;;;;;18.35;9.25;;;7.60;99.90;;;;;;4938813;28;86603;-75
2023/10/17 02:37:16;;;;;;;20.48;9.55;;;7.60;99.90;;;;;;4938648;28;86180;-75
2023/10/17 02:39:42;;;;;;;19.20;9.45;;;7.60;99.90;;;;;;4937416;28;87303;-75
2023/10/17 02:42:08;;;;;;;21.10;9.98;;;7.50;99.90;;;;;;4938423;28;89842;-75
2023/10/17 02:44:40;;;;;;;16.17;8.68;;;7.50;99.90;;;;;;4937608;28;87199;-75
2023/10/17 02:47:12;;;;;;;16.15;9.27;;;7.60;99.90;;;;;;4937287;28;87520;-75
2023/10/17 02:49:38;;;;;;;18.83;9.43;;;7.60;99.90;;;;;;4936364;28;89720;-76
2023/10/17 02:52:05;;;;;;;19.63;9.13;;;7.60;99.90;;;;;;4938344;28;86288;-75
2023/10/17 02:54:42;;;;;;;17.30;8.95;;;7.60;99.90;;;;;;4938768;28;86152;-75
2023/10/17 02:57:08;;;;;;;16.83;8.88;;;7.60;99.90;;;;;;4937775;28;86646;-76
2023/10/17 02:59:35;;;;;;;17.73;8.93;;;7.60;99.90;;;;;;4936954;28;90750;-75
2023/10/17 03:02:05;;;;;;;20.10;9.27;;;7.60;99.90;;;;;;4938284;28;87349;-75
2023/10/17 03:04:31;;;;;;;14.80;8.20;;;7.60;99.90;;;;;;4934499;28;86113;-75
2023/10/17 03:06:59;;;;;;;18.52;9.73;;;7.70;99.90;;;;;;4936701;28;86172;-75
2023/10/17 03:14:33;;;;;;;14.43;8.45;;;7.70;99.90;;;;;;4938269;28;85919;-75
2023/10/17 03:16:58;;;;;;;16.92;9.05;;;7.70;99.90;;;;;;4952606;28;86171;-75
2023/10/17 03:19:26;;;;;;;17.70;8.13;;;7.60;99.90;;;;;;4936776;28;90376;-75
2023/10/17 03:21:58;;;;;;;18.13;8.63;;;7.70;99.90;;;;;;4935836;28;90001;-75
2023/10/17 03:24:38;;;;;;;17.48;8.35;;;7.60;99.90;;;;;;4939008;28;86409;-75
2023/10/17 03:27:07;;;;;;;13.25;7.63;;;7.60;99.90;;;;;;4938128;28;86481;-75
2023/10/17 03:29:36;;;;;;;18.48;8.23;;;7.70;99.90;;;;;;4937887;28;86241;-75
2023/10/17 03:32:05;;;;;;;17.58;8.50;;;7.70;99.90;;;;;;4936453;28;89869;-76
2023/10/17 03:34:37;;;;;;;17.13;8.18;;;7.70;99.90;;;;;;4937366;28;90775;-75
2023/10/17 03:39:55;;;;;;;17.15;8.48;;;7.70;99.90;;;;;;4936967;28;88258;-76
2023/10/17 03:42:41;;;;;;;16.38;8.13;;;7.70;99.90;;;;;;4938978;28;87155;-76
2023/10/17 03:46:15;;;;;;;19.35;8.43;;;7.70;99.90;;;;;;4938754;28;87140;-76
2023/10/17 03:48:04;;;;;;;19.92;8.35;;;7.70;99.90;;;;;;4932884;28;86951;-75
2023/10/17 03:51:21;;;;;;;16.02;7.70;;;7.70;99.90;;;;;;4936284;28;91378;-75
2023/10/17 03:55:51;;;;;;;18.00;8.77;;;7.70;99.90;;;;;;4941698;28;86779;-76
2023/10/17 03:58:24;;;;;;;17.00;8.20;;;7.70;99.90;;;;;;4956307;28;86424;-75
2023/10/17 04:01:01;;;;;;;17.80;8.50;;;7.70;99.90;;;;;;4940477;28;87483;-75
2023/10/17 04:08:37;;;;;;;14.43;7.82;;;7.70;99.90;;;;;;4941125;28;86396;-76
2023/10/17 04:13:49;;;;;;;15.68;7.90;;;7.70;99.90;;;;;;4940225;28;86437;-75
2023/10/17 04:16:25;;;;;;;14.00;7.72;;;7.70;99.90;;;;;;4940572;28;86515;-75
2023/10/17 04:19:00;;;;;;;16.10;7.85;;;7.70;99.90;;;;;;4939867;28;86213;-75
2023/10/17 04:21:31;;;;;;;18.02;8.05;;;7.70;99.90;;;;;;4941612;28;86949;-75
2023/10/17 04:24:05;;;;;;;14.35;8.75;;;7.70;99.90;;;;;;4941253;28;86656;-75
2023/10/17 04:26:34;;;;;;;24.15;8.57;;;7.70;99.90;;;;;;4940619;28;86378;-75
2023/10/17 04:29:11;;;;;;;19.13;8.02;;;7.70;99.90;;;;;;4940317;28;86473;-75
2023/10/17 04:31:37;;;;;;;16.33;7.45;;;7.70;99.90;;;;;;4941266;28;87835;-75
2023/10/17 04:34:06;;;;;;;14.68;8.10;;;7.70;99.90;;;;;;4941515;28;86642;-76
2023/10/17 04:36:38;;;;;;;11.60;7.35;;;7.70;99.90;;;;;;4939735;28;86712;-75
2023/10/17 04:44:15;;;;;;;19.92;7.80;;;7.70;99.90;;;;;;4940475;28;86024;-75
2023/10/17 04:46:58;;;;;;;14.60;7.28;;;7.70;99.90;;;;;;4939120;28;87385;-75
2023/10/17 04:49:24;;;;;;;11.32;6.82;;;7.70;99.90;;;;;;4940592;28;86532;-76
2023/10/17 04:52:03;;;;;;;15.63;7.32;;;7.70;99.90;;;;;;4940461;28;87491;-75
2023/10/17 04:57:54;;;;;;;13.80;6.72;;;7.70;99.90;;;;;;4940108;28;86407;-75
2023/10/17 06:18:49;;;;;;;14.95;6.60;;;7.60;99.90;;;;;;4916800;28;86207;-76
2023/10/17 06:21:19;;;;;;;21.20;6.75;;;7.60;99.90;;;;;;4918252;28;89545;-76
2023/10/17 06:26:53;;;;;;;14.90;5.65;;;7.70;99.90;;;;;;4938461;28;85998;-76
2023/10/17 06:34:26;;;;;;;11.50;5.57;;;7.70;99.90;;;;;;4924970;28;86798;-76
2023/10/17 06:36:59;;;;;;;10.68;5.00;;;7.70;99.90;;;;;;4925811;28;86489;-76
2023/10/17 06:39:27;;;;;;;16.13;6.30;;;7.70;99.90;;;;;;4930322;28;90700;-76
2023/10/17 06:41:55;;;;;;;13.30;5.63;;;7.70;99.90;;;;;;4921700;28;94661;-75
2023/10/17 06:44:26;;;;;;;10.38;5.75;;;7.70;99.90;;;;;;4925927;28;86977;-76
2023/10/17 06:46:56;;;;;;;20.15;5.80;;;7.70;99.90;;;;;;4923914;28;87221;-76
2023/10/17 06:54:41;;;;;;;10.35;5.03;;;7.80;99.90;;;;;;4925796;28;87172;-75
2023/10/17 06:57:19;;;;;;;12.48;4.95;;;7.80;99.90;;;;;;4925766;28;86193;-75
2023/10/17 06:59:51;;;;;;;10.73;5.28;;;7.80;99.90;;;;;;4926239;28;87537;-76
2023/10/17 07:02:41;;;;;;;13.20;4.97;;;7.80;99.90;;;;;;4925231;28;86893;-75
2023/10/17 07:05:08;;;;;;;13.55;5.90;;;7.90;99.90;;;;;;4923208;28;86469;-75
2023/10/17 07:07:44;;;;;;;12.75;5.70;;;7.90;99.90;;;;;;4923338;28;86420;-75
2023/10/17 07:10:16;;;;;;;9.10;5.30;;;7.90;99.90;;;;;;4924805;28;87402;-75
2023/10/17 07:12:47;;;;;;;13.27;5.18;;;7.90;99.90;;;;;;4924550;28;85998;-75
2023/10/17 07:15:18;;;;;;;14.02;5.32;;;8.00;99.90;;;;;;4926121;28;86845;-75
2023/10/17 07:21:15;;;;;;;10.63;5.45;;;8.10;99.90;;;;;;4920128;28;87354;-76
2023/10/17 07:23:19;;;;;;;10.52;5.30;;;8.10;99.90;;;;;;4923515;28;87532;-76
2023/10/17 07:25:49;;;;;;;12.85;4.80;;;8.10;99.90;;;;;;4924406;28;86964;-76
2023/10/17 07:28:15;;;;;;;15.88;5.63;;;8.20;99.90;;;;;;4924056;28;86473;-76
2023/10/17 07:30:49;;;;;;;11.27;6.72;;;8.20;99.90;;;;;;4922549;28;87669;-76
2023/10/17 07:33:17;;;;;;;12.30;5.88;;;8.30;99.90;;;;;;4924839;28;87104;-77
2023/10/17 07:35:59;;;;;;;12.57;5.85;;;8.40;99.90;;;;;;4914451;28;86549;-78
2023/10/17 07:38:28;;;;;;;13.20;5.80;;;8.40;99.90;;;;;;4922595;28;86706;-76
2023/10/17 07:40:58;;;;;;;14.60;6.25;;;8.40;99.90;;;;;;4921630;28;91106;-75
2023/10/17 07:43:24;;;;;;;14.50;6.63;;;8.50;99.90;;;;;;4924272;28;87322;-76
2023/10/17 07:45:55;;;;;;;13.88;7.47;;;8.50;99.90;;;;;;4921877;28;86868;-76
2023/10/17 07:48:27;;;;;;;14.60;7.05;;;8.60;99.90;;;;;;4923978;28;86182;-76
2023/10/17 07:50:54;;;;;;;13.13;7.07;;;8.60;99.90;;;;;;4924538;28;92320;-74
2023/10/17 07:53:21;;;;;;;12.48;6.28;;;8.70;99.90;;;;;;4924550;28;86765;-74
2023/10/17 07:56:13;;;;;;;15.23;7.00;;;8.70;99.90;;;;;;4933920;28;87071;-76
2023/10/17 07:58:45;;;;;;;14.25;7.15;;;8.80;99.90;;;;;;4936451;28;86355;-76
2023/10/17 08:01:15;;;;;;;18.13;7.27;;;8.80;99.90;;;;;;4936533;28;88515;-77
2023/10/17 08:04:24;;;;;;;15.05;7.60;;;8.90;99.90;;;;;;4934279;28;89466;-77
2023/10/17 08:06:50;;;;;;;18.77;9.60;;;8.90;99.90;;;;;;4933721;28;86433;-78
2023/10/17 08:11:53;;;;;;;15.00;7.20;;;9.00;99.90;;;;;;4936235;28;85865;-78
2023/10/17 08:14:23;;;;;;;11.63;6.70;;;9.00;99.90;;;;;;4939862;28;87070;-76
2023/10/17 08:16:54;;;;;;;10.48;5.40;;;9.00;99.90;;;;;;4930298;28;88012;-76
2023/10/17 08:19:26;;;;;;;9.57;4.93;;;9.10;99.90;;;;;;4934545;28;86322;-78
2023/10/17 08:22:10;;;;;;;10.70;5.05;;;9.20;99.90;;;;;;4919311;28;89591;-78
2023/10/17 08:24:44;;;;;;;12.80;4.70;;;9.20;99.90;;;;;;4922015;28;90099;-77
2023/10/17 08:27:46;;;;;;;11.65;4.22;;;9.30;99.90;;;;;;4934641;28;88512;-77
2023/10/17 08:35:39;;;;;;;9.23;4.07;;;9.40;99.90;;;;;;4933626;28;87456;-78
2023/10/17 08:38:10;;;;;;;12.05;5.03;;;9.40;99.90;;;;;;4929006;28;86852;-76
2023/10/17 08:43:14;;;;;;;6.72;3.95;;;9.50;99.90;;;;;;4935958;28;87045;-77
2023/10/17 08:45:41;;;;;;;11.05;4.50;;;9.60;99.90;;;;;;4939709;28;87277;-75
2023/10/17 08:48:37;;;;;;;;;;;;;;;;;;;;;
2023/10/17 08:52:02;;;;;;;;;;;;;;;;;;;;;
2023/10/17 08:54:39;;;;;;;;;;;;;;;;;;;;;
2023/10/17 08:57:52;;;;;;;7.65;3.83;;;9.80;99.90;;;;;;4939097;28;115331;-77
2023/10/17 09:00:49;;;;;;;11.80;4.03;;;9.80;99.90;;;;;;4911729;28;87275;-78
2023/10/17 09:03:29;;;;;;;6.43;3.33;;;9.90;99.90;;;;;;4926347;28;86757;-77
2023/10/17 09:06:59;;;;;;;;;;;;;;;;;;;;;
2023/10/17 09:09:24;;;;;;;8.50;3.45;;;10.00;99.90;;;;;;4900434;28;91438;-77
2023/10/17 09:12:02;;;;;;;7.68;4.07;;;10.00;99.90;;;;;;4936923;28;87548;-77
2023/10/17 09:14:35;;;;;;;9.98;4.00;;;10.10;99.90;;;;;;4939884;28;86288;-77
2023/10/17 09:17:13;;;;;;;;;;;10.20;99.90;;;;;;4938875;28;91174;-77
2023/10/17 09:19:47;;;;;;;6.70;3.35;;;10.30;99.90;;;;;;4939122;28;90169;-77
2023/10/17 09:22:43;;;;;;;8.73;3.80;;;10.40;99.90;;;;;;4939764;28;86410;-77
2023/10/17 09:25:23;;;;;;;9.35;3.90;;;10.50;99.90;;;;;;4939038;28;86348;-77
2023/10/17 09:27:50;;;;;;;8.48;3.72;;;10.50;99.90;;;;;;4939212;28;86967;-77
2023/10/17 09:30:17;;;;;;;9.35;4.18;;;10.60;99.90;;;;;;4940355;28;87220;-77
2023/10/17 09:32:42;;;;;;;8.75;3.75;;;10.60;99.90;;;;;;4940822;22;87552;-75
2023/10/17 09:35:14;;;;;;;7.68;3.30;;;10.60;99.90;;;;;;4924684;28;86464;-77
2023/10/17 09:37:43;;;;;;;6.10;3.22;;;10.50;99.90;;;;;;4923030;28;87099;-75
2023/10/17 09:40:13;;;;;;;6.05;3.22;;;10.50;99.90;;;;;;4939518;28;90055;-75
2023/10/17 09:42:46;;;;;;;9.10;3.35;;;10.60;99.90;;;;;;4938893;28;86483;-74
2023/10/17 09:45:14;;;;;;;6.87;3.30;;;10.70;99.90;;;;;;4924110;28;86904;-74
2023/10/17 09:47:47;;;;;;;5.03;3.08;;;10.80;99.90;;;;;;4936975;28;90716;-74
2023/10/17 09:50:16;;;;;;;12.85;3.30;;;10.90;99.90;;;;;;4937220;28;90060;-74
2023/10/17 09:52:48;;;;;;;9.00;3.45;;;11.00;99.90;;;;;;4922725;28;86469;-75
2023/10/17 09:55:24;;;;;;;4.63;3.17;;;11.10;99.90;;;;;;4924312;28;86325;-74
2023/10/17 09:58:03;;;;;;;6.28;3.15;;;11.20;99.90;;;;;;4924715;28;86892;-73
2023/10/17 10:00:46;;;;;;;6.20;3.33;;;11.30;99.90;;;;;;4912999;28;86882;-74
2023/10/17 10:03:15;;;;;;;6.82;2.85;;;11.40;99.90;;;;;;4924947;28;86723;-73
2023/10/17 10:05:42;;;;;;;5.35;2.75;;;11.50;99.90;;;;;;4924559;28;86829;-74
2023/10/17 10:08:34;;;;;;;7.22;2.45;;;11.50;99.90;;;;;;4924662;28;87431;-74
2023/10/17 10:11:02;;;;;;;7.00;2.75;;;11.70;99.90;;;;;;4923391;28;86512;-74
2023/10/17 10:13:31;;;;;;;4.03;2.45;;;11.80;99.90;;;;;;4918678;28;86864;-74
2023/10/17 10:16:01;;;;;;;6.55;2.30;;;11.90;99.90;;;;;;4907783;28;86405;-73
2023/10/17 10:18:36;;;;;;;5.82;2.42;;;12.00;99.80;;;;;;4929565;28;91165;-74
2023/10/17 10:21:03;;;;;;;6.15;2.75;;;12.10;99.50;;;;;;4917628;28;88104;-74
2023/10/17 10:23:36;;;;;;;4.43;2.08;;;12.20;99.50;;;;;;4937031;28;86145;-73
2023/10/17 10:26:22;;;;;;;5.88;2.42;;;12.40;98.80;;;;;;4907872;28;86796;-74
2023/10/17 10:28:52;;;;;;;8.07;2.05;;;12.50;98.50;;;;;;4890974;28;90157;-73
2023/10/17 10:31:24;;;;;;;4.35;1.98;;;12.70;99.00;;;;;;4892344;28;90218;-73
2023/10/17 10:33:58;;;;;;;4.05;1.65;;;12.80;98.10;;;;;;4923458;28;86723;-76
2023/10/17 10:36:24;;;;;;;9.43;2.30;;;12.90;97.60;;;;;;4939650;28;86655;-75
2023/10/17 10:38:55;;;;;;;5.80;1.90;;;13.00;97.10;;;;;;4923095;28;86776;-71
2023/10/17 10:41:22;;;;;;;6.07;2.10;;;13.20;97.20;;;;;;4937679;28;89616;-74
2023/10/17 10:43:56;;;;;;;6.90;1.90;;;13.20;96.40;;;;;;4925462;28;86574;-73
2023/10/17 10:46:22;;;;;;;7.15;1.73;;;13.40;96.80;;;;;;4939981;28;86994;-79
2023/10/17 10:48:53;;;;;;;3.95;1.80;;;13.60;95.60;;;;;;4940110;28;88394;-75
2023/10/17 10:51:24;;;;;;;4.15;1.90;;;13.70;96.30;;;;;;4925698;28;86740;-74
2023/10/17 10:53:56;;;;;;;11.90;2.03;;;14.00;96.30;;;;;;4939664;28;87670;-76
2023/10/17 10:56:24;;;;;;;8.13;2.30;;;14.10;95.20;;;;;;4924968;28;86225;-76
2023/10/17 10:58:55;;;;;;;6.72;2.03;;;14.40;95.30;;;;;;4924198;28;86423;-74
2023/10/17 11:01:21;;;;;;;4.72;1.65;;;14.50;94.00;;;;;;4924642;28;86935;-76
2023/10/17 11:03:49;;;;;;;5.82;1.45;;;14.70;94.30;;;;;;4925326;28;86859;-73
2023/10/17 11:06:20;;;;;;;2.97;1.48;;;14.90;94.20;;;;;;4925305;28;86920;-73
2023/10/17 11:08:47;;;;;;;3.38;1.90;;;15.10;94.40;;;;;;4939019;28;90412;-74
2023/10/17 11:11:16;;;;;;;4.82;1.55;;;15.30;92.90;;;;;;4940007;28;89792;-75
2023/10/17 11:13:46;;;;;;;4.43;1.70;;;15.30;90.70;;;;;;4939106;28;87145;-72
2023/10/17 11:16:14;;;;;;;3.35;1.83;;;15.30;91.90;;;;;;4938308;28;86626;-72
2023/10/17 11:18:44;;;;;;;4.35;1.50;;;15.40;90.70;;;;;;4923367;28;87424;-74
2023/10/17 11:21:14;;;;;;;4.32;1.73;;;15.50;90.50;;;;;;4924488;28;86948;-74
2023/10/17 11:23:46;;;;;;;4.65;1.85;;;15.50;90.50;;;;;;4938230;28;86606;-76
2023/10/17 11:26:12;;;;;;;3.28;1.20;;;15.60;90.40;;;;;;4923037;28;87172;-74
2023/10/17 11:28:46;;;;;;;3.83;1.20;;;15.70;89.30;;;;;;4923077;28;88115;-75
2023/10/17 11:31:22;;;;;;;2.45;1.05;;;15.70;87.50;;;;;;4923480;28;86383;-73
2023/10/17 11:34:12;;;;;;;2.90;1.23;;;15.80;88.00;;;;;;4937729;28;87010;-74
2023/10/17 11:36:51;;;;;;;5.32;1.30;;;15.90;86.40;;;;;;4938007;28;86467;-73
2023/10/17 11:39:18;;;;;;;2.75;0.95;;;16.00;88.30;;;;;;4940308;28;88518;-75
2023/10/17 11:41:54;;;;;;;6.10;1.92;;;16.10;87.60;;;;;;4923809;28;86911;-76
2023/10/17 11:44:23;;;;;;;4.93;1.08;;;16.30;86.00;;;;;;4922774;28;86735;-76
2023/10/17 11:47:01;;;;;;;3.08;1.20;;;16.40;85.00;;;;;;4922484;28;86804;-75
2023/10/17 11:49:31;;;;;;;7.35;1.30;;;16.40;82.50;;;;;;4937213;28;90394;-76
2023/10/17 11:52:01;;;;;;;1.23;0.90;;;16.40;81.50;;;;;;4940602;28;89198;-76
2023/10/17 11:54:27;;;;;;;2.83;0.95;;;16.50;81.90;;;;;;4924035;28;86887;-75
2023/10/17 11:56:57;;;;;;;2.67;0.80;;;16.60;84.40;;;;;;4923566;28;86713;-75
2023/10/17 11:59:23;;;;;;;5.32;1.17;;;16.80;83.30;;;;;;4921885;28;86935;-76
2023/10/17 12:01:54;;;;;;;3.25;0.88;;;16.90;82.80;;;;;;4936454;28;89785;-75
2023/10/17 12:04:23;;;;;;;3.28;1.10;;;17.00;79.70;;;;;;4937250;28;87253;-75
2023/10/17 12:06:49;;;;;;;2.80;0.88;;;17.10;81.00;;;;;;4934752;28;86499;-75
2023/10/17 12:09:17;;;;;;;4.97;1.52;;;17.30;80.60;;;;;;4923376;28;87514;-75
2023/10/17 12:11:47;;;;;;;1.48;0.88;;;17.50;78.00;;;;;;4937798;28;89375;-76
2023/10/17 12:14:20;;;;;;;7.93;1.30;;;17.60;76.70;;;;;;4925982;28;86486;-76
2023/10/17 12:16:58;;;;;;;4.30;1.00;;;17.60;74.60;;;;;;4925694;28;86235;-76
2023/10/17 12:19:26;;;;;;;3.40;1.20;;;17.70;76.30;;;;;;4940226;28;91052;-76
2023/10/17 12:21:56;;;;;;;11.35;1.58;;;17.90;74.60;;;;;;4939926;28;89802;-77
2023/10/17 12:24:28;;;;;;;5.32;1.20;;;18.00;75.60;;;;;;4925940;28;86786;-76
2023/10/17 12:26:55;;;;;;;2.33;1.03;;;18.10;72.00;;;;;;4925170;28;86595;-75
2023/10/17 12:29:25;;;;;;;3.60;0.93;;;18.10;71.90;;;;;;4923401;28;86792;-76
2023/10/17 12:31:59;;;;;;;1.90;0.98;;;18.10;71.00;;;;;;4939518;28;90183;-77
2023/10/17 12:34:28;;;;;;;5.03;1.15;;;18.10;71.10;;;;;;4942490;28;87569;-75
2023/10/17 12:36:54;;;;;;;2.10;0.70;;;18.20;68.80;;;;;;4940430;28;86503;-76
2023/10/17 12:39:20;;;;;;;3.40;1.40;;;18.40;69.30;;;;;;4925642;28;89986;-76
2023/10/17 12:41:46;;;;;;;3.22;1.00;;;18.70;72.90;;;;;;4926671;28;86366;-77
2023/10/17 12:44:13;;;;;;;3.25;1.40;;;19.00;71.90;;;;;;4910906;28;86623;-75
2023/10/17 12:46:39;;;;;;;3.38;1.25;;;19.30;70.20;;;;;;4915180;28;86626;-76
2023/10/17 12:49:10;;;;;;;4.10;1.20;;;19.60;68.90;;;;;;4941013;28;90368;-76
2023/10/17 12:51:41;;;;;;;5.57;1.30;;;19.90;67.10;;;;;;4939586;28;89243;-76
2023/10/17 12:54:08;;;;;;;4.30;1.20;;;20.10;62.80;;;;;;4927399;28;85823;-76
2023/10/17 12:56:37;;;;;;;5.95;1.52;;;20.30;64.00;;;;;;4940341;28;86976;-75
2023/10/17 12:59:03;;;;;;;4.07;1.25;;;20.50;64.60;;;;;;4939587;28;90430;-77
2023/10/17 13:01:30;;;;;;;3.20;1.20;;;20.70;63.00;;;;;;4937937;28;90147;-77
2023/10/17 13:03:57;;;;;;;4.22;1.20;;;20.90;61.50;;;;;;4939647;28;86948;-76
2023/10/17 13:06:27;;;;;;;4.10;1.30;;;21.10;61.10;;;;;;4926522;28;86439;-75
2023/10/17 13:08:56;;;;;;;4.30;1.40;;;21.30;60.60;;;;;;4925376;28;91312;-77
2023/10/17 13:11:27;;;;;;;2.78;1.38;;;21.50;59.50;;;;;;4925143;28;87251;-75
2023/10/17 13:13:53;;;;;;;3.55;1.38;;;21.70;57.70;;;;;;4924497;28;86628;-77
2023/10/17 13:16:21;;;;;;;2.20;1.00;;;21.70;56.40;;;;;;4939911;28;86257;-76
2023/10/17 13:18:47;;;;;;;3.10;1.35;;;21.80;56.30;;;;;;4938985;28;90673;-77
2023/10/17 13:21:14;;;;;;;3.33;1.17;;;22.10;56.50;;;;;;4924547;28;86325;-77
2023/10/17 13:23:41;;;;;;;2.30;0.95;;;22.30;56.00;;;;;;4938519;28;87206;-76
2023/10/17 13:26:14;;;;;;;5.72;1.20;;;22.40;54.50;;;;;;4923693;28;86583;-76
2023/10/17 13:28:40;;;;;;;3.90;1.33;;;22.60;54.50;;;;;;4938738;28;90057;-76
2023/10/17 13:31:16;;;;;;;5.35;1.10;;;22.80;52.30;;;;;;4920323;28;90543;-77
2023/10/17 13:33:43;;;;;;;2.42;1.00;;;23.00;53.00;;;;;;4907614;28;87358;-77
2023/10/17 13:36:15;;;;;;;3.42;1.30;;;23.10;53.00;;;;;;4939768;28;86645;-77
2023/10/17 13:38:41;;;;;;;3.42;1.00;;;23.30;52.00;;;;;;4920273;28;90447;-76
2023/10/17 13:41:09;;;;;;;3.33;1.33;;;23.50;50.20;;;;;;4919866;28;89145;-76
2023/10/17 13:43:36;;;;;;;2.28;1.20;;;23.50;49.50;;;;;;4919803;28;87037;-77
2023/10/17 13:46:13;;;;;;;4.03;0.80;;;23.70;50.80;;;;;;4908280;28;86985;-76
2023/10/17 13:48:40;;;;;;;4.55;0.98;;;24.10;50.70;;;;;;4939378;28;90221;-77
2023/10/17 13:51:06;;;;;;;4.50;1.25;;;24.40;49.70;;;;;;4926910;28;86720;-77
2023/10/17 13:53:36;;;;;;;4.38;1.13;;;24.70;47.30;;;;;;4939486;28;86609;-76
2023/10/17 13:56:16;;;;;;;7.82;1.88;;;24.80;47.30;;;;;;4930091;28;86840;-76
2023/10/17 13:58:42;;;;;;;2.35;1.20;;;24.80;44.90;;;;;;4924575;28;87921;-77
2023/10/17 14:03:56;;;;;;;3.53;1.17;;;25.20;48.30;;;;;;4909850;28;86359;-78
2023/10/17 14:06:22;;;;;;;2.13;1.05;;;25.40;45.80;;;;;;4940545;28;86858;-76
2023/10/17 14:08:49;;;;;;;3.55;1.30;;;25.50;44.40;;;;;;4939726;28;90135;-77
2023/10/17 14:11:20;;;;;;;6.63;1.40;;;25.60;44.70;;;;;;4923844;28;86451;-77
2023/10/17 14:13:49;;;;;;;3.47;1.20;;;25.70;44.30;;;;;;4925117;28;86487;-77
2023/10/17 14:16:17;;;;;;;1.98;1.30;;;25.60;44.30;;;;;;4925321;28;87190;-77
2023/10/17 14:18:44;;;;;;;3.53;1.48;;;25.70;44.00;;;;;;4940900;28;86759;-77
2023/10/17 14:23:57;;;;;;;3.17;1.00;;;25.90;43.30;;;;;;4925399;28;86721;-77
2023/10/17 14:26:33;;;;;;;3.70;1.10;;;25.90;43.50;;;;;;4924725;28;86609;-74
2023/10/17 14:29:00;;;;;;;1.98;1.00;;;26.10;42.70;;;;;;4925260;28;86533;-74
2023/10/17 14:31:29;;;;;;;4.95;1.30;;;25.90;42.60;;;;;;4925007;28;87053;-74
2023/10/17 14:33:55;;;;;;;1.70;0.80;;;25.80;43.00;;;;;;4939550;28;86684;-74
2023/10/17 14:36:21;;;;;;;4.18;1.13;;;25.90;42.00;;;;;;4925160;28;85989;-73
2023/10/17 14:38:48;;;;;;;3.45;1.25;;;25.90;42.70;;;;;;4924520;28;87587;-75
2023/10/17 14:41:14;;;;;;;4.93;1.92;;;25.90;43.50;;;;;;4939646;28;89054;-75
2023/10/17 14:43:49;;;;;;;4.78;1.95;;;26.00;42.50;;;;;;4924977;28;86397;-75
2023/10/17 14:46:16;;;;;;;5.75;2.58;;;26.10;42.00;;;;;;4940036;28;86006;-74
2023/10/17 14:48:44;;;;;;;4.00;1.15;;;26.30;41.90;;;;;;4924426;28;86631;-74
2023/10/17 14:51:12;;;;;;;2.17;0.95;;;26.50;43.20;;;;;;4924931;28;87124;-77
2023/10/17 14:53:46;;;;;;;3.85;0.80;;;26.60;41.60;;;;;;4919490;28;86861;-75
2023/10/17 14:56:12;;;;;;;7.00;0.90;;;26.60;41.50;;;;;;4918340;28;86743;-75
2023/10/17 14:58:52;;;;;;;5.15;0.95;;;26.60;42.20;;;;;;4940056;28;89418;-74
2023/10/17 15:01:18;;;;;;;3.17;0.93;;;26.70;41.40;;;;;;4924800;28;86528;-74
2023/10/17 15:03:50;;;;;;;3.30;0.80;;;26.70;41.30;;;;;;4925911;28;85940;-73
2023/10/17 15:06:16;;;;;;;3.97;0.70;;;26.80;41.20;;;;;;4924669;28;86792;-75
2023/10/17 15:08:43;;;;;;;4.13;0.90;;;26.80;40.00;;;;;;4939551;28;88859;-75
2023/10/17 15:11:10;;;;;;;2.38;1.00;;;26.60;39.20;;;;;;4942119;28;88515;-73
2023/10/17 15:13:37;;;;;;;6.15;1.27;;;26.30;40.60;;;;;;4928563;28;86523;-73
2023/10/17 15:16:12;;;;;;;5.97;1.15;;;26.30;40.50;;;;;;4942374;28;86773;-73
2023/10/17 15:18:38;;;;;;;2.92;0.88;;;26.10;40.40;;;;;;4941400;28;89490;-73
2023/10/17 15:21:15;;;;;;;3.90;0.85;;;26.10;40.70;;;;;;4925044;28;86141;-75
2023/10/17 15:23:45;;;;;;;3.42;0.85;;;26.10;40.80;;;;;;4940979;28;91341;-76
2023/10/17 15:26:11;;;;;;;2.15;0.98;;;25.90;40.70;;;;;;4944683;28;86953;-73
2023/10/17 15:28:39;;;;;;;3.03;0.93;;;25.80;40.80;;;;;;4925953;28;88124;-77
2023/10/17 15:31:07;;;;;;;2.55;1.17;;;25.60;41.20;;;;;;4930820;28;86504;-73
2023/10/17 15:33:33;;;;;;;3.25;1.00;;;25.60;42.10;;;;;;4925452;28;86286;-74
2023/10/17 15:35:59;;;;;;;3.25;1.10;;;25.40;41.10;;;;;;4926160;28;88334;-72